createdAt,value
2024-03-01T00:03:52.912Z,9.47
2024-03-01T00:08:57.725Z,9.45
2024-03-01T00:14:01.067Z,9.56
2024-03-01T00:19:05.206Z,9.34
2024-03-01T00:24:08.997Z,9.36
2024-03-01T00:29:12.723Z,9.28
2024-03-01T00:34:16.194Z,9.34
2024-03-01T00:39:19.555Z,9.34
2024-03-01T00:44:24.005Z,8.94
2024-03-01T00:49:28.438Z,8.77
2024-03-01T00:54:31.625Z,8.80
2024-03-01T00:59:35.704Z,8.82
2024-03-01T01:04:39.946Z,8.79
2024-03-01T01:09:43.635Z,8.77
2024-03-01T01:14:46.839Z,8.75
2024-03-01T01:19:50.154Z,8.89
2024-03-01T01:24:54.247Z,8.84
2024-03-01T01:29:57.640Z,8.78
2024-03-01T01:35:01.033Z,8.89
2024-03-01T01:40:04.376Z,8.96
2024-03-01T01:45:08.468Z,8.81
2024-03-01T01:50:11.671Z,8.85
2024-03-01T01:55:16.970Z,8.76
2024-03-01T02:00:21.289Z,8.56
2024-03-01T02:05:24.622Z,8.55
2024-03-01T02:10:28.158Z,8.70
2024-03-01T02:15:33.378Z,8.86
2024-03-01T02:20:37.302Z,8.74
2024-03-01T02:25:40.663Z,8.91
2024-03-01T02:30:45.791Z,8.42
2024-03-01T02:35:49.367Z,8.47
2024-03-01T02:40:52.441Z,8.52
2024-03-01T02:45:55.564Z,8.60
2024-03-01T02:50:58.790Z,8.47
2024-03-01T02:56:02.433Z,8.41
2024-03-01T03:01:05.822Z,8.43
2024-03-01T03:06:09.066Z,8.30
2024-03-01T03:11:12.376Z,8.32
2024-03-01T03:16:18.615Z,8.24
2024-03-01T03:21:21.813Z,8.11
2024-03-01T03:26:25.392Z,8.07
2024-03-01T03:31:28.820Z,7.97
2024-03-01T03:36:34.247Z,8.14
2024-03-01T03:41:37.658Z,8.06
2024-03-01T03:46:43.735Z,7.79
2024-03-01T03:51:46.769Z,7.68
2024-03-01T03:56:49.930Z,8.04
2024-03-01T04:01:53.309Z,7.94
2024-03-01T04:06:59.275Z,7.79
2024-03-01T04:12:07.183Z,7.48
2024-03-01T04:17:12.481Z,7.42
2024-03-01T04:22:16.583Z,7.37
2024-03-01T04:27:19.776Z,7.61
2024-03-01T04:32:23.157Z,7.53
2024-03-01T04:37:26.513Z,7.42
2024-03-01T04:42:29.857Z,7.44
2024-03-01T04:47:34.244Z,7.22
2024-03-01T04:52:37.497Z,7.68
2024-03-01T04:57:41.573Z,7.37
2024-03-01T05:02:44.795Z,7.30
2024-03-01T05:07:49.838Z,7.57
2024-03-01T05:12:53.400Z,7.33
2024-03-01T05:17:56.562Z,7.19
2024-03-01T05:22:59.783Z,7.09
2024-03-01T05:28:02.966Z,7.33
2024-03-01T05:33:08.897Z,7.39
2024-03-01T05:38:12.376Z,7.33
2024-03-01T05:43:15.612Z,7.18
2024-03-01T05:48:19.236Z,7.19
2024-03-01T05:53:22.438Z,7.34
2024-03-01T05:58:25.870Z,7.32
2024-03-01T06:03:29.366Z,7.45
2024-03-01T06:08:32.786Z,7.50
2024-03-01T06:13:35.924Z,7.61
2024-03-01T06:18:39.076Z,7.63
2024-03-01T06:23:43.232Z,7.43
2024-03-01T06:28:46.617Z,7.72
2024-03-01T06:33:49.711Z,7.87
2024-03-01T06:38:52.968Z,7.91
2024-03-01T06:43:56.135Z,7.57
2024-03-01T06:49:02.134Z,7.62
2024-03-01T06:54:05.284Z,7.86
2024-03-01T06:59:08.550Z,7.66
2024-03-01T07:04:11.884Z,7.62
2024-03-01T07:09:15.528Z,7.56
2024-03-01T07:14:18.717Z,7.56
2024-03-01T07:19:21.931Z,7.45
2024-03-01T07:24:25.598Z,7.80
2024-03-01T07:29:30.164Z,7.97
2024-03-01T07:34:36.204Z,8.07
2024-03-01T07:39:39.805Z,8.12
2024-03-01T07:44:43.228Z,8.27
2024-03-01T07:49:49.975Z,8.37
2024-03-01T07:54:53.237Z,8.41
2024-03-01T07:59:56.391Z,8.28
2024-03-01T08:04:59.604Z,8.35
2024-03-01T08:10:03.132Z,8.57
2024-03-01T08:15:09.364Z,8.52
2024-03-01T08:20:47.935Z,8.61
2024-03-01T08:25:51.304Z,8.70
2024-03-01T08:30:54.853Z,8.76
2024-03-01T08:35:58.168Z,8.90
2024-03-01T08:41:05.072Z,9.17
2024-03-01T08:46:24.368Z,8.99
2024-03-01T08:51:27.637Z,8.87
2024-03-01T08:56:37.143Z,9.01
2024-03-01T09:01:46.782Z,9.10
2024-03-01T09:07:06.279Z,9.34
2024-03-01T09:12:30.865Z,9.06
2024-03-01T09:17:34.190Z,8.85
2024-03-01T09:22:38.149Z,9.14
2024-03-01T09:27:43.924Z,9.31
2024-03-01T09:32:48.242Z,9.49
2024-03-01T09:37:52.338Z,9.65
2024-03-01T09:43:03.799Z,9.96
2024-03-01T09:48:06.911Z,10.24
2024-03-01T09:53:32.818Z,10.21
2024-03-01T09:58:46.237Z,10.56
2024-03-01T10:04:24.142Z,10.76
2024-03-01T10:10:18.474Z,10.59
2024-03-01T10:15:40.214Z,10.81
2024-03-01T10:21:09.109Z,10.98
2024-03-01T10:26:31.543Z,11.45
2024-03-01T10:32:04.979Z,11.58
2024-03-01T10:37:15.700Z,11.72
2024-03-01T10:42:22.051Z,12.07
2024-03-01T10:47:28.338Z,12.23
2024-03-01T10:52:39.258Z,12.31
2024-03-01T10:57:57.105Z,12.49
2024-03-01T11:03:20.459Z,12.62
2024-03-01T11:08:55.511Z,12.78
2024-03-01T11:14:00.356Z,13.04
2024-03-01T11:19:08.387Z,13.06
2024-03-01T11:24:18.251Z,13.12
2024-03-01T11:29:31.934Z,13.10
2024-03-01T11:34:50.035Z,13.28
2024-03-01T11:40:20.651Z,13.54
2024-03-01T11:45:36.064Z,13.81
2024-03-01T11:50:49.681Z,13.81
2024-03-01T11:56:20.844Z,14.01
2024-03-01T12:01:42.644Z,13.99
2024-03-01T12:07:06.410Z,14.04
2024-03-01T12:12:40.001Z,14.29
2024-03-01T12:18:01.764Z,14.13
2024-03-01T12:23:23.806Z,14.25
2024-03-01T12:28:42.009Z,14.39
2024-03-01T12:34:16.594Z,14.24
2024-03-01T12:39:21.773Z,14.16
2024-03-01T12:44:42.436Z,13.98
2024-03-01T12:50:03.943Z,14.11
2024-03-01T12:55:16.483Z,13.90
2024-03-01T13:00:25.396Z,14.16
2024-03-01T13:05:42.305Z,14.18
2024-03-01T13:10:46.763Z,13.83
2024-03-01T13:16:12.011Z,13.70
2024-03-01T13:21:24.354Z,13.74
2024-03-01T13:26:45.501Z,14.00
2024-03-01T13:32:02.270Z,13.84
2024-03-01T13:37:11.911Z,13.65
2024-03-01T13:42:35.745Z,13.70
2024-03-01T13:47:52.127Z,13.75
2024-03-01T13:52:55.607Z,13.91
2024-03-01T13:58:00.611Z,13.95
2024-03-01T14:03:06.934Z,13.93
2024-03-01T14:08:11.965Z,13.47
2024-03-01T14:13:15.414Z,13.46
2024-03-01T14:18:20.747Z,13.60
2024-03-01T14:23:26.535Z,13.58
2024-03-01T14:28:31.290Z,13.34
2024-03-01T14:33:35.187Z,13.21
2024-03-01T14:38:38.698Z,13.20
2024-03-01T14:43:51.940Z,13.37
2024-03-01T14:49:01.257Z,13.33
2024-03-01T14:54:24.693Z,13.21
2024-03-01T14:59:28.125Z,13.21
2024-03-01T15:04:31.358Z,13.34
2024-03-01T15:09:45.407Z,13.32
2024-03-01T15:14:49.098Z,13.26
2024-03-01T15:19:52.706Z,13.34
2024-03-01T15:25:10.490Z,13.26
2024-03-01T15:30:14.042Z,13.32
2024-03-01T15:35:17.232Z,13.19
2024-03-01T15:40:21.839Z,12.93
2024-03-01T15:45:25.777Z,12.75
2024-03-01T15:50:31.239Z,12.71
2024-03-01T15:55:36.612Z,12.55
2024-03-01T16:00:39.850Z,12.48
2024-03-01T16:05:42.909Z,12.45
2024-03-01T16:10:57.723Z,12.42
2024-03-01T16:16:02.462Z,12.36
2024-03-01T16:21:07.572Z,12.24
2024-03-01T16:26:16.673Z,12.19
2024-03-01T16:31:20.497Z,12.08
2024-03-01T16:36:23.988Z,11.97
2024-03-01T16:41:30.388Z,12.00
2024-03-01T16:46:37.280Z,12.10
2024-03-01T16:51:43.971Z,12.05
2024-03-01T16:56:47.221Z,12.01
2024-03-01T17:01:51.524Z,11.68
2024-03-01T17:06:55.872Z,11.78
2024-03-01T17:11:59.250Z,11.75
2024-03-01T17:17:02.822Z,11.60
2024-03-01T17:22:06.258Z,11.67
2024-03-01T17:27:09.542Z,11.57
2024-03-01T17:32:12.815Z,11.47
2024-03-01T17:37:16.041Z,11.57
2024-03-01T17:42:19.554Z,11.44
2024-03-01T17:47:22.742Z,11.47
2024-03-01T17:52:26.249Z,11.39
2024-03-01T17:57:29.512Z,11.16
2024-03-01T18:02:32.844Z,11.13
2024-03-01T18:07:36.193Z,11.15
2024-03-01T18:12:39.427Z,11.09
2024-03-01T18:17:42.661Z,11.03
2024-03-01T18:22:46.006Z,10.94
2024-03-01T18:27:50.431Z,11.03
2024-03-01T18:32:57.237Z,11.09
2024-03-01T18:38:00.531Z,11.09
2024-03-01T18:43:04.260Z,10.99
2024-03-01T18:48:07.995Z,10.90
2024-03-01T18:53:11.195Z,10.70
2024-03-01T18:58:14.696Z,10.52
2024-03-01T19:03:18.805Z,10.61
2024-03-01T19:08:22.637Z,10.69
2024-03-01T19:13:31.101Z,10.67
2024-03-01T19:18:34.868Z,10.72
2024-03-01T19:23:37.982Z,10.52
2024-03-01T19:28:44.537Z,10.51
2024-03-01T19:33:47.808Z,10.51
2024-03-01T19:38:51.090Z,10.44
2024-03-01T19:43:54.762Z,10.15
2024-03-01T19:48:58.630Z,9.90
2024-03-01T19:54:02.164Z,9.98
2024-03-01T19:59:05.457Z,9.94
2024-03-01T20:04:08.794Z,10.18
2024-03-01T20:09:14.219Z,10.20
2024-03-01T20:14:17.363Z,9.94
2024-03-01T20:19:20.773Z,10.07
2024-03-01T20:24:26.464Z,9.97
2024-03-01T20:29:29.608Z,10.14
2024-03-01T20:34:32.881Z,10.22
2024-03-01T20:39:36.161Z,10.42
2024-03-01T20:44:41.992Z,10.30
2024-03-01T20:49:45.735Z,10.03
2024-03-01T20:54:49.375Z,10.22
2024-03-01T20:59:55.795Z,10.10
2024-03-01T21:04:59.443Z,10.21
2024-03-01T21:10:07.324Z,10.16
2024-03-01T21:15:10.861Z,9.73
2024-03-01T21:20:16.176Z,9.80
2024-03-01T21:25:19.636Z,9.78
2024-03-01T21:30:23.081Z,9.71
2024-03-01T21:35:26.304Z,9.63
2024-03-01T21:40:29.798Z,9.59
2024-03-01T21:45:33.078Z,9.49
2024-03-01T21:50:36.336Z,9.30
2024-03-01T21:55:39.601Z,9.32
2024-03-01T22:00:43.082Z,9.24
2024-03-01T22:05:46.418Z,9.05
2024-03-01T22:10:49.996Z,9.03
2024-03-01T22:15:53.351Z,8.89
2024-03-01T22:20:56.564Z,8.77
2024-03-01T22:25:59.804Z,8.67
2024-03-01T22:31:03.988Z,8.43
2024-03-01T22:36:10.054Z,8.44
2024-03-01T22:41:14.114Z,8.61
2024-03-01T22:46:17.448Z,8.43
2024-03-01T22:51:20.775Z,8.40
2024-03-01T22:56:24.297Z,8.48
2024-03-01T23:01:29.155Z,8.51
2024-03-01T23:06:32.737Z,8.28
2024-03-01T23:11:41.051Z,8.24
2024-03-01T23:16:44.886Z,8.17
2024-03-01T23:21:48.032Z,8.09
2024-03-01T23:26:51.394Z,7.95
2024-03-01T23:31:54.649Z,7.99
2024-03-01T23:37:00.343Z,7.99
2024-03-01T23:42:05.238Z,7.95
2024-03-01T23:47:08.367Z,8.05
2024-03-01T23:52:12.004Z,7.98
2024-03-01T23:57:15.746Z,7.80
